»·PEaware :: N347CD KAVX-KSAN

N347CD :: KAVX-KSAN

FLIGHT INFORMATION

Flight Status: Arrived
Operator: Privately registered:
United States
More flights under this callsign
Pilot: Daniel C. (3642)
Aircraft: BEECH AIRCRAFT BONANZA
(BE36)
More flights by this aircraft type
Origin: KAVX Catalina
United States
Destination: KSAN San Diego Intl-Lindbergh
United States
More flights between these airports :: More routes between these airports
Route: CSTP56
File this flight plan on PilotEdge
Remarks: +CW / LYNDI.RNAVy GPS RWY27
Altitude:
(Current/Filed)
5,000ft
Speed:
(Current/Filed)
165kts
Departed: 05-Feb-20 01:27 PM
Arrived: 05-Feb-20 02:17 PM
Distance/Time
Traveled:
74nm/0:50
Distance/Time
To Go:
Arrived

Flight Plot

Page will automatically refresh every two minutes.

Flight plan parsing failed; only flown route is shown


Map Options




Map Legend


Flown Route
Filed Route
Departure Airport
Arrival Airport
Navaid (VOR, NDB)
Fix

Horizontal Profiles

Position Reports

Time Latitude Longitude Heading Altitude Ground
Speed
05-Feb-20 13:20 33.403486 -118.415014 324 1606ft 0kts
05-Feb-20 13:22 33.403486 -118.415014 324 1606ft 0kts
05-Feb-20 13:23 33.405737 -118.413800 56 1606ft 17kts
05-Feb-20 13:24 33.407129 -118.411448 50 1605ft 0kts
05-Feb-20 13:25 33.407129 -118.411448 50 1605ft 0kts
05-Feb-20 13:26 33.406915 -118.412493 236 1606ft 38kts
05-Feb-20 13:27 33.390012 -118.433421 189 2388ft 102kts
05-Feb-20 13:28 33.372540 -118.413602 89 3635ft 102kts
05-Feb-20 13:29 33.369674 -118.379687 98 4682ft 114kts
05-Feb-20 13:30 33.363823 -118.333771 98 4878ft 159kts
05-Feb-20 13:31 33.356775 -118.279510 98 4870ft 168kts
05-Feb-20 13:32 33.349506 -118.224174 99 4869ft 168kts
05-Feb-20 13:33 33.342184 -118.168616 98 4869ft 169kts
05-Feb-20 13:34 33.334854 -118.113126 98 4869ft 169kts
05-Feb-20 13:35 33.327500 -118.057645 98 4869ft 169kts
05-Feb-20 13:36 33.320086 -118.001928 98 4871ft 173kts
05-Feb-20 13:37 33.312410 -117.944429 98 4869ft 176kts
05-Feb-20 13:38 33.304695 -117.886842 99 4869ft 177kts
05-Feb-20 13:39 33.296797 -117.828102 99 4789ft 178kts
05-Feb-20 13:40 33.289076 -117.770891 99 4789ft 177kts
05-Feb-20 13:41 33.281131 -117.712770 99 4789ft 177kts
05-Feb-20 13:41 33.274571 -117.664594 99 4789ft 177kts
05-Feb-20 13:42 33.266689 -117.606809 99 4789ft 177kts
05-Feb-20 13:44 33.257423 -117.539132 99 4789ft 177kts
05-Feb-20 13:44 33.250474 -117.491956 97 4840ft 174kts
05-Feb-20 13:45 33.244957 -117.433526 101 4773ft 177kts
05-Feb-20 13:47 33.199326 -117.400189 160 4771ft 177kts
05-Feb-20 13:47 33.161029 -117.384121 160 4770ft 173kts
05-Feb-20 13:48 33.116753 -117.365488 160 4769ft 163kts
05-Feb-20 13:49 33.074421 -117.347694 160 4771ft 160kts
05-Feb-20 13:50 33.032655 -117.330153 160 4770ft 158kts
05-Feb-20 13:51 32.991493 -117.312883 160 4771ft 156kts
05-Feb-20 13:52 32.950721 -117.295794 160 4771ft 155kts
05-Feb-20 13:53 32.916123 -117.269864 101 4777ft 159kts
05-Feb-20 13:54 32.907068 -117.216194 101 4772ft 168kts
05-Feb-20 13:55 32.897874 -117.161438 101 4771ft 169kts
05-Feb-20 13:56 32.888634 -117.106340 101 4770ft 168kts
05-Feb-20 13:57 32.879533 -117.051985 101 4771ft 166kts
05-Feb-20 13:58 32.870528 -116.998161 101 4771ft 166kts
05-Feb-20 13:59 32.861518 -116.944248 101 4771ft 166kts
05-Feb-20 14:00 32.852645 -116.891077 101 4766ft 154kts
05-Feb-20 14:01 32.835726 -116.851231 178 4766ft 143kts
05-Feb-20 14:02 32.798846 -116.862305 189 4768ft 129kts
05-Feb-20 14:03 32.764400 -116.868200 187 4769ft 122kts
05-Feb-20 14:04 32.729699 -116.873566 187 4772ft 129kts
05-Feb-20 14:05 32.694026 -116.879128 194 4771ft 127kts
05-Feb-20 14:06 32.679661 -116.909405 250 4400ft 103kts
05-Feb-20 14:07 32.673633 -116.943225 285 3777ft 111kts
05-Feb-20 14:08 32.681026 -116.973721 286 3408ft 88kts
05-Feb-20 14:09 32.687768 -117.001296 286 3009ft 84kts
05-Feb-20 14:10 32.694917 -117.030589 286 2623ft 96kts
05-Feb-20 14:11 32.702198 -117.060399 286 2296ft 94kts
05-Feb-20 14:12 32.709416 -117.090107 286 1855ft 94kts
05-Feb-20 14:13 32.716795 -117.120498 285 1258ft 96kts
05-Feb-20 14:14 32.723685 -117.148842 285 700ft 88kts
05-Feb-20 14:15 32.730083 -117.175275 284 163ft 78kts
05-Feb-20 14:16 32.733933 -117.188075 16 20ft 0kts
05-Feb-20 14:17 32.734702 -117.187010 280 21ft 0kts

Navigation Log

Ident Type
Flight plan parsing failed, navigation log unavailable